createdAt,value
2018-07-28T00:00:32.739Z,26.60
2018-07-28T00:03:00.903Z,26.60
2018-07-28T00:05:29.015Z,26.60
2018-07-28T00:07:57.123Z,26.50
2018-07-28T00:10:25.312Z,26.40
2018-07-28T00:12:53.439Z,26.20
2018-07-28T00:15:21.575Z,26.20
2018-07-28T00:17:49.707Z,26.10
2018-07-28T00:20:17.822Z,26.10
2018-07-28T00:22:45.924Z,26.00
2018-07-28T00:25:14.028Z,26.00
2018-07-28T00:27:42.471Z,25.90
2018-07-28T00:30:12.274Z,25.90
2018-07-28T00:32:42.457Z,25.90
2018-07-28T00:35:10.587Z,25.70
2018-07-28T00:37:38.700Z,25.70
2018-07-28T00:40:07.328Z,25.70
2018-07-28T00:42:35.787Z,25.70
2018-07-28T00:45:04.444Z,25.60
2018-07-28T00:47:32.563Z,25.50
2018-07-28T00:50:00.691Z,25.50
2018-07-28T00:52:28.819Z,25.50
2018-07-28T00:54:56.902Z,25.50
2018-07-28T00:59:52.932Z,25.50
2018-07-28T01:02:21.195Z,25.50
2018-07-28T01:04:49.287Z,25.50
2018-07-28T01:07:17.388Z,25.50
2018-07-28T01:12:13.423Z,25.50
2018-07-28T01:14:41.539Z,25.50
2018-07-28T01:17:09.712Z,25.40
2018-07-28T01:19:37.798Z,25.40
2018-07-28T01:22:05.895Z,25.40
2018-07-28T01:24:34.043Z,25.40
2018-07-28T01:27:02.383Z,25.40
2018-07-28T01:29:30.496Z,25.40
2018-07-28T01:31:58.624Z,25.40
2018-07-28T01:34:26.739Z,25.40
2018-07-28T01:36:54.851Z,25.40
2018-07-28T01:39:23.089Z,25.30
2018-07-28T01:41:51.196Z,25.40
2018-07-28T01:44:19.328Z,25.30
2018-07-28T01:46:47.469Z,25.30
2018-07-28T01:49:15.602Z,25.30
2018-07-28T01:54:11.643Z,25.20
2018-07-28T01:56:39.744Z,25.20
2018-07-28T01:59:07.887Z,25.20
2018-07-28T02:01:35.984Z,25.20
2018-07-28T02:04:04.083Z,25.20
2018-07-28T02:06:32.220Z,25.10
2018-07-28T02:09:00.299Z,25.10
2018-07-28T02:11:28.395Z,25.00
2018-07-28T02:16:24.402Z,25.00
2018-07-28T02:18:53.366Z,25.00
2018-07-28T02:21:21.490Z,25.00
2018-07-28T02:23:49.620Z,25.00
2018-07-28T02:26:17.715Z,25.00
2018-07-28T02:28:45.929Z,25.10
2018-07-28T02:31:14.353Z,25.10
2018-07-28T02:33:43.004Z,25.00
2018-07-28T02:36:11.096Z,25.00
2018-07-28T02:38:39.215Z,25.00
2018-07-28T02:41:07.353Z,24.90
2018-07-28T02:43:35.458Z,24.80
2018-07-28T02:46:03.592Z,24.80
2018-07-28T02:50:59.607Z,24.80
2018-07-28T02:53:27.749Z,24.70
2018-07-28T02:55:55.830Z,24.70
2018-07-28T02:58:23.970Z,24.60
2018-07-28T03:00:52.077Z,24.60
2018-07-28T03:03:20.427Z,24.60
2018-07-28T03:05:48.528Z,24.60
2018-07-28T03:08:16.657Z,24.60
2018-07-28T03:10:44.768Z,24.50
2018-07-28T03:13:12.884Z,24.50
2018-07-28T03:15:41.035Z,24.50
2018-07-28T03:18:09.173Z,24.40
2018-07-28T03:20:37.283Z,24.40
2018-07-28T03:23:05.771Z,24.40
2018-07-28T03:25:33.885Z,24.40
2018-07-28T03:28:02.136Z,24.30
2018-07-28T03:30:30.277Z,24.30
2018-07-28T03:32:58.506Z,24.30
2018-07-28T03:35:26.647Z,24.40
2018-07-28T03:37:54.755Z,24.40
2018-07-28T03:40:22.919Z,24.30
2018-07-28T03:45:19.015Z,24.30
2018-07-28T03:47:47.167Z,24.20
2018-07-28T03:50:15.259Z,24.10
2018-07-28T03:52:43.350Z,24.00
2018-07-28T03:55:11.479Z,24.00
2018-07-28T03:57:39.727Z,24.00
2018-07-28T04:00:10.582Z,23.90
2018-07-28T04:02:38.951Z,23.90
2018-07-28T04:05:08.381Z,23.90
2018-07-28T04:07:36.635Z,23.90
2018-07-28T04:10:05.202Z,23.90
2018-07-28T04:12:33.343Z,23.90
2018-07-28T04:15:01.467Z,23.90
2018-07-28T04:17:29.567Z,23.80
2018-07-28T04:19:57.686Z,23.70
2018-07-28T04:22:25.838Z,23.70
2018-07-28T04:24:54.406Z,23.80
2018-07-28T04:27:22.528Z,23.70
2018-07-28T04:29:50.699Z,23.70
2018-07-28T04:32:18.825Z,23.70
2018-07-28T04:34:46.931Z,23.70
2018-07-28T04:37:15.066Z,23.70
2018-07-28T04:39:43.175Z,23.70
2018-07-28T04:42:11.344Z,23.70
2018-07-28T04:44:39.473Z,23.70
2018-07-28T04:47:07.591Z,23.70
2018-07-28T04:49:35.683Z,23.70
2018-07-28T04:52:03.823Z,23.70
2018-07-28T04:54:31.948Z,23.70
2018-07-28T04:57:00.076Z,23.70
2018-07-28T04:59:28.198Z,23.70
2018-07-28T05:04:24.234Z,23.70
2018-07-28T05:06:52.343Z,23.70
2018-07-28T05:09:20.475Z,23.70
2018-07-28T05:11:48.624Z,23.80
2018-07-28T05:14:16.739Z,23.80
2018-07-28T05:16:44.858Z,23.90
2018-07-28T05:21:41.067Z,24.00
2018-07-28T05:24:09.161Z,24.00
2018-07-28T05:26:37.275Z,24.00
2018-07-28T05:29:05.804Z,24.10
2018-07-28T05:31:33.961Z,24.20
2018-07-28T05:34:02.083Z,24.20
2018-07-28T05:36:30.199Z,24.20
2018-07-28T05:38:58.339Z,24.30
2018-07-28T05:41:26.434Z,24.20
2018-07-28T05:43:54.558Z,24.20
2018-07-28T05:46:22.662Z,24.10
2018-07-28T05:48:50.819Z,24.10
2018-07-28T05:51:18.971Z,24.10
2018-07-28T05:53:47.095Z,24.10
2018-07-28T05:56:15.238Z,24.10
2018-07-28T05:58:43.384Z,24.20
2018-07-28T06:01:11.512Z,24.10
2018-07-28T06:03:39.649Z,24.20
2018-07-28T06:06:07.908Z,24.20
2018-07-28T06:08:36.027Z,24.40
2018-07-28T06:11:04.243Z,24.50
2018-07-28T06:13:32.335Z,24.50
2018-07-28T06:18:28.334Z,24.60
2018-07-28T06:20:56.439Z,24.80
2018-07-28T06:23:24.614Z,24.90
2018-07-28T06:25:52.749Z,25.10
2018-07-28T06:28:20.827Z,25.20
2018-07-28T06:30:49.031Z,25.20
2018-07-28T06:35:45.005Z,25.50
2018-07-28T06:38:13.119Z,25.60
2018-07-28T06:40:41.211Z,25.80
2018-07-28T06:43:09.331Z,25.90
2018-07-28T06:45:37.503Z,25.90
2018-07-28T06:48:05.611Z,26.10
2018-07-28T06:50:33.699Z,26.20
2018-07-28T06:53:02.037Z,26.30
2018-07-28T06:55:30.105Z,26.40
2018-07-28T06:57:58.161Z,26.60
2018-07-28T07:00:26.243Z,26.70
2018-07-28T07:02:54.289Z,26.60
2018-07-28T07:05:22.389Z,26.60
2018-07-28T07:07:50.445Z,26.60
2018-07-28T07:10:18.518Z,26.50
2018-07-28T07:12:46.582Z,26.40
2018-07-28T07:17:42.586Z,26.20
2018-07-28T07:20:10.669Z,26.20
2018-07-28T07:22:38.737Z,26.10
2018-07-28T07:25:06.931Z,26.10
2018-07-28T07:27:35.662Z,25.90
2018-07-28T07:30:04.562Z,25.90
2018-07-28T07:32:32.657Z,25.90
2018-07-28T07:35:00.786Z,25.90
2018-07-28T07:37:28.872Z,25.90
2018-07-28T07:39:56.973Z,26.00
2018-07-28T07:42:25.048Z,26.00
2018-07-28T07:44:53.119Z,26.00
2018-07-28T07:47:21.318Z,26.10
2018-07-28T07:49:49.389Z,26.10
2018-07-28T07:52:17.496Z,26.20
2018-07-28T07:54:45.650Z,26.20
2018-07-28T07:57:13.740Z,26.20
2018-07-28T07:59:42.073Z,26.20
2018-07-28T08:02:10.270Z,26.20
2018-07-28T08:04:38.364Z,26.20
2018-07-28T08:07:06.471Z,26.30
2018-07-28T08:09:34.604Z,26.30
2018-07-28T08:12:02.831Z,26.40
2018-07-28T08:14:30.935Z,26.40
2018-07-28T08:16:59.055Z,26.50
2018-07-28T08:19:27.136Z,26.60
2018-07-28T08:21:55.324Z,26.70
2018-07-28T08:24:23.424Z,26.80
2018-07-28T08:26:51.562Z,26.90
2018-07-28T08:29:19.632Z,27.00
2018-07-28T08:31:47.795Z,27.10
2018-07-28T08:34:15.862Z,27.20
2018-07-28T08:36:43.957Z,27.20
2018-07-28T08:39:13.927Z,27.30
2018-07-28T08:41:43.032Z,27.50
2018-07-28T08:44:11.307Z,27.70
2018-07-28T08:46:39.527Z,27.80
2018-07-28T08:49:07.645Z,27.60
2018-07-28T08:51:35.723Z,27.70
2018-07-28T08:54:04.146Z,27.70
2018-07-28T08:56:32.244Z,27.80
2018-07-28T08:59:00.344Z,27.60
2018-07-28T09:01:28.443Z,27.70
2018-07-28T09:03:56.531Z,27.90
2018-07-28T09:06:24.679Z,28.20
2018-07-28T09:08:52.751Z,28.60
2018-07-28T09:11:20.834Z,29.10
2018-07-28T09:13:48.963Z,29.80
2018-07-28T09:16:17.059Z,30.20
2018-07-28T09:18:45.175Z,30.60
2018-07-28T09:21:13.256Z,30.40
2018-07-28T09:23:41.417Z,30.20
2018-07-28T09:26:09.491Z,29.90
2018-07-28T09:28:37.594Z,30.20
2018-07-28T09:31:05.733Z,30.20
2018-07-28T09:33:33.856Z,30.30
2018-07-28T09:36:01.972Z,30.90
2018-07-28T09:38:30.096Z,31.40
2018-07-28T09:40:58.199Z,30.90
2018-07-28T09:43:26.698Z,31.30
2018-07-28T09:45:55.108Z,31.60
2018-07-28T09:48:23.555Z,31.40
2018-07-28T09:50:51.658Z,30.90
2018-07-28T09:53:19.767Z,30.90
2018-07-28T09:55:47.888Z,30.60
2018-07-28T09:58:16.561Z,30.30
2018-07-28T10:03:18.190Z,30.70
2018-07-28T10:05:46.540Z,31.00
2018-07-28T10:10:42.602Z,30.80
2018-07-28T10:13:10.715Z,30.70
2018-07-28T10:15:38.815Z,30.20
2018-07-28T10:18:06.958Z,30.20
2018-07-28T10:20:35.095Z,30.20
2018-07-28T10:23:03.363Z,30.00
2018-07-28T10:25:31.383Z,30.00
2018-07-28T10:27:59.472Z,30.00
2018-07-28T10:30:27.682Z,29.90
2018-07-28T10:32:55.806Z,29.90
2018-07-28T10:35:23.927Z,29.90
2018-07-28T10:37:52.040Z,29.90
2018-07-28T10:40:20.132Z,30.00
2018-07-28T10:42:48.260Z,30.20
2018-07-28T10:45:17.463Z,30.30
2018-07-28T10:47:45.579Z,30.30
2018-07-28T10:52:41.658Z,30.40
2018-07-28T10:55:09.784Z,30.40
2018-07-28T10:57:37.857Z,30.40
2018-07-28T11:00:06.950Z,30.50
2018-07-28T11:02:35.042Z,30.70
2018-07-28T11:05:03.149Z,31.10
2018-07-28T11:07:31.243Z,31.70
2018-07-28T11:09:59.379Z,32.30
2018-07-28T11:12:27.482Z,32.80
2018-07-28T11:14:55.600Z,33.30
2018-07-28T11:17:23.755Z,33.60
2018-07-28T11:19:51.867Z,33.80
2018-07-28T11:22:19.979Z,33.70
2018-07-28T11:27:15.984Z,33.30
2018-07-28T11:29:44.088Z,33.00
2018-07-28T11:32:23.800Z,33.10
2018-07-28T11:35:03.370Z,33.10
2018-07-28T11:37:49.646Z,32.90
2018-07-28T11:40:29.384Z,33.00
2018-07-28T11:43:08.871Z,33.00
2018-07-28T11:45:36.988Z,32.90
2018-07-28T11:48:05.328Z,32.90
2018-07-28T11:50:33.447Z,32.70
2018-07-28T11:53:01.588Z,32.50
2018-07-28T11:55:29.718Z,32.30
2018-07-28T11:57:57.814Z,32.20
2018-07-28T12:00:25.910Z,31.90
2018-07-28T12:02:53.995Z,31.50
2018-07-28T12:05:22.094Z,31.10
2018-07-28T12:07:50.510Z,30.90
2018-07-28T12:10:18.617Z,30.40
2018-07-28T12:12:46.788Z,30.00
2018-07-28T12:17:42.827Z,28.60
2018-07-28T12:22:38.910Z,26.10
2018-07-28T12:25:07.004Z,25.50
2018-07-28T12:27:35.135Z,25.20
2018-07-28T12:30:03.274Z,25.00
2018-07-28T12:32:31.368Z,24.90
2018-07-28T12:34:59.496Z,25.10
2018-07-28T12:37:27.510Z,25.30
2018-07-28T12:39:55.572Z,25.70
2018-07-28T12:42:23.658Z,26.20
2018-07-28T12:44:51.750Z,26.60
2018-07-28T12:47:20.114Z,26.90
2018-07-28T12:49:48.533Z,27.10
2018-07-28T12:55:07.838Z,27.00
2018-07-28T12:57:40.441Z,26.80
2018-07-28T13:00:08.529Z,26.80
2018-07-28T13:02:36.589Z,26.80
2018-07-28T13:05:05.530Z,26.90
2018-07-28T13:10:01.550Z,27.40
2018-07-28T13:12:29.693Z,27.70
2018-07-28T13:14:57.647Z,27.90
2018-07-28T13:17:25.673Z,28.10
2018-07-28T13:19:54.054Z,28.30
2018-07-28T13:22:22.126Z,28.40
2018-07-28T13:24:50.542Z,28.50
2018-07-28T13:27:18.564Z,28.50
2018-07-28T13:29:46.707Z,28.70
2018-07-28T13:32:14.689Z,28.80
2018-07-28T13:34:42.715Z,28.90
2018-07-28T13:37:10.781Z,28.90
2018-07-28T13:39:38.810Z,28.80
2018-07-28T13:44:34.706Z,28.80
2018-07-28T13:47:02.742Z,28.70
2018-07-28T13:49:30.789Z,28.60
2018-07-28T13:51:58.845Z,28.50
2018-07-28T13:54:26.921Z,28.50
2018-07-28T13:56:55.019Z,28.50
2018-07-28T13:59:23.099Z,28.50
2018-07-28T14:01:51.220Z,28.50
2018-07-28T14:04:19.316Z,28.40
2018-07-28T14:06:47.439Z,28.40
2018-07-28T14:09:15.522Z,28.50
2018-07-28T14:11:43.642Z,28.40
2018-07-28T14:14:11.822Z,28.40
2018-07-28T14:16:39.922Z,28.30
2018-07-28T14:19:08.024Z,28.40
2018-07-28T14:21:36.091Z,28.40
2018-07-28T14:26:32.173Z,28.50
2018-07-28T14:29:00.261Z,28.50
2018-07-28T14:31:28.658Z,28.50
2018-07-28T14:33:56.680Z,28.60
2018-07-28T14:36:24.814Z,28.60
2018-07-28T14:38:52.927Z,28.60
2018-07-28T14:41:20.998Z,28.70
2018-07-28T14:43:49.091Z,28.70
2018-07-28T14:46:17.203Z,28.80
2018-07-28T14:48:45.311Z,28.90
2018-07-28T14:51:13.432Z,29.00
2018-07-28T14:53:41.536Z,29.00
2018-07-28T14:56:09.623Z,29.00
2018-07-28T14:58:37.868Z,29.10
2018-07-28T15:01:05.968Z,29.00
2018-07-28T15:03:34.099Z,28.90
2018-07-28T15:06:02.214Z,28.70
2018-07-28T15:08:30.347Z,28.60
2018-07-28T15:10:58.443Z,28.60
2018-07-28T15:13:26.552Z,28.50
2018-07-28T15:15:54.679Z,28.50
2018-07-28T15:18:22.761Z,28.60
2018-07-28T15:20:50.844Z,28.70
2018-07-28T15:23:18.944Z,28.80
2018-07-28T15:25:47.095Z,28.90
2018-07-28T15:28:15.181Z,29.00
2018-07-28T15:30:43.286Z,29.00
2018-07-28T15:33:11.397Z,29.00
2018-07-28T15:35:39.492Z,29.00
2018-07-28T15:38:07.839Z,29.00
2018-07-28T15:40:35.932Z,29.00
2018-07-28T15:43:04.055Z,29.00
2018-07-28T15:45:32.139Z,29.00
2018-07-28T15:48:00.270Z,29.00
2018-07-28T15:50:28.553Z,29.00
2018-07-28T15:52:56.628Z,29.00
2018-07-28T15:55:24.719Z,29.00
2018-07-28T15:57:52.829Z,29.10
2018-07-28T16:00:20.940Z,29.10
2018-07-28T16:02:49.911Z,29.10
2018-07-28T16:05:18.476Z,29.10
2018-07-28T16:07:46.971Z,29.10
2018-07-28T16:10:15.472Z,29.10
2018-07-28T16:12:43.568Z,29.00
2018-07-28T16:15:11.699Z,28.90
2018-07-28T16:17:39.784Z,28.90
2018-07-28T16:20:07.921Z,28.90
2018-07-28T16:22:35.998Z,28.90
2018-07-28T16:25:04.268Z,28.90
2018-07-28T16:27:32.503Z,28.90
2018-07-28T16:30:00.748Z,28.90
2018-07-28T16:32:28.895Z,28.90
2018-07-28T16:34:57.048Z,28.80
2018-07-28T16:37:25.138Z,28.80
2018-07-28T16:39:53.343Z,28.70
2018-07-28T16:42:21.472Z,28.60
2018-07-28T16:44:49.628Z,28.40
2018-07-28T16:47:17.735Z,28.40
2018-07-28T16:49:45.863Z,28.10
2018-07-28T16:52:14.032Z,27.40
2018-07-28T16:54:42.236Z,26.70
2018-07-28T16:57:10.398Z,26.10
2018-07-28T16:59:38.515Z,26.20
2018-07-28T17:02:06.661Z,25.70
2018-07-28T17:04:34.753Z,25.10
2018-07-28T17:07:03.011Z,24.60
2018-07-28T17:09:31.104Z,24.30
2018-07-28T17:11:59.219Z,24.70
2018-07-28T17:14:27.309Z,24.90
2018-07-28T17:16:55.398Z,24.90
2018-07-28T17:19:23.504Z,24.80
2018-07-28T17:21:51.606Z,24.80
2018-07-28T17:24:19.697Z,24.80
2018-07-28T17:26:47.763Z,24.80
2018-07-28T17:29:15.834Z,24.80
2018-07-28T17:31:43.948Z,24.30
2018-07-28T17:34:12.068Z,23.70
2018-07-28T17:36:40.140Z,23.20
2018-07-28T17:39:09.000Z,23.20
2018-07-28T17:41:37.096Z,23.20
2018-07-28T17:44:05.187Z,23.00
2018-07-28T17:46:33.376Z,22.80
2018-07-28T17:49:01.767Z,22.70
2018-07-28T17:51:29.925Z,22.50
2018-07-28T17:53:58.021Z,22.30
2018-07-28T17:58:54.032Z,22.10
2018-07-28T18:01:22.226Z,22.30
2018-07-28T18:03:50.387Z,22.30
2018-07-28T18:06:18.475Z,22.40
2018-07-28T18:08:46.616Z,22.50
2018-07-28T18:11:14.736Z,22.50
2018-07-28T18:13:42.864Z,22.60
2018-07-28T18:16:11.552Z,22.50
2018-07-28T18:18:39.670Z,22.50
2018-07-28T18:21:08.316Z,22.40
2018-07-28T18:23:36.579Z,22.20
2018-07-28T18:26:04.893Z,21.80
2018-07-28T18:28:32.991Z,21.60
2018-07-28T18:31:01.067Z,21.40
2018-07-28T18:33:29.156Z,21.30
2018-07-28T18:35:57.318Z,21.30
2018-07-28T18:38:25.448Z,21.40
2018-07-28T18:40:53.527Z,21.40
2018-07-28T18:43:21.633Z,21.40
2018-07-28T18:45:49.840Z,21.40
2018-07-28T18:48:18.018Z,21.40
2018-07-28T18:50:47.076Z,21.50
2018-07-28T18:53:15.250Z,21.50
2018-07-28T18:55:43.344Z,21.60
2018-07-28T18:58:11.598Z,21.50
2018-07-28T19:00:40.735Z,21.60
2018-07-28T19:03:08.867Z,21.70
2018-07-28T19:05:36.981Z,21.80
2018-07-28T19:08:05.243Z,21.90
2018-07-28T19:10:33.382Z,21.90
2018-07-28T19:13:07.018Z,21.90
2018-07-28T19:15:35.120Z,21.90
2018-07-28T19:18:08.660Z,21.90
2018-07-28T19:20:36.704Z,22.00
2018-07-28T19:23:10.246Z,22.10
2018-07-28T19:25:38.367Z,22.20
2018-07-28T19:28:12.037Z,22.20
2018-07-28T19:30:40.132Z,22.20
2018-07-28T19:33:08.227Z,22.00
2018-07-28T19:38:22.385Z,22.00
2018-07-28T19:40:50.610Z,21.90
2018-07-28T19:43:18.712Z,21.90
2018-07-28T19:45:46.783Z,21.90
2018-07-28T19:48:14.991Z,21.80
2018-07-28T19:50:43.076Z,21.70
2018-07-28T19:53:11.175Z,21.70
2018-07-28T19:55:39.279Z,21.60
2018-07-28T19:58:07.360Z,21.60
2018-07-28T20:00:35.471Z,21.60
2018-07-28T20:03:03.555Z,21.40
2018-07-28T20:05:31.647Z,21.30
2018-07-28T20:07:59.767Z,21.30
2018-07-28T20:10:27.928Z,21.30
2018-07-28T20:12:56.024Z,21.10
2018-07-28T20:17:51.998Z,21.10
2018-07-28T20:20:20.142Z,21.10
2018-07-28T20:22:48.243Z,21.20
2018-07-28T20:25:16.326Z,21.10
2018-07-28T20:27:44.537Z,21.00
2018-07-28T20:30:13.042Z,20.90
2018-07-28T20:32:41.272Z,20.90
2018-07-28T20:35:09.472Z,20.80
2018-07-28T20:37:37.750Z,20.80
2018-07-28T20:40:05.852Z,20.70
2018-07-28T20:42:34.019Z,20.60
2018-07-28T20:45:02.125Z,20.40
2018-07-28T20:47:30.619Z,20.30
2018-07-28T20:49:59.826Z,20.10
2018-07-28T20:52:28.063Z,20.10
2018-07-28T20:54:56.227Z,19.90
2018-07-28T20:57:24.380Z,19.90
2018-07-28T21:02:20.443Z,19.90
2018-07-28T21:04:48.548Z,19.90
2018-07-28T21:07:16.631Z,19.90
2018-07-28T21:09:44.844Z,19.90
2018-07-28T21:14:40.827Z,19.80
2018-07-28T21:17:09.016Z,19.90
2018-07-28T21:19:37.163Z,19.90
2018-07-28T21:22:05.260Z,19.90
2018-07-28T21:24:33.380Z,19.90
2018-07-28T21:27:01.476Z,19.80
2018-07-28T21:29:29.804Z,19.80
2018-07-28T21:31:58.159Z,19.90
2018-07-28T21:34:26.284Z,20.00
2018-07-28T21:36:54.420Z,20.00
2018-07-28T21:39:22.609Z,20.10
2018-07-28T21:41:50.820Z,20.10
2018-07-28T21:44:18.939Z,20.10
2018-07-28T21:49:14.984Z,20.00
2018-07-28T21:52:46.284Z,20.00
2018-07-28T21:55:14.411Z,19.90
2018-07-28T21:57:42.548Z,19.70
2018-07-28T22:00:11.141Z,19.60
2018-07-28T22:02:39.356Z,19.40
2018-07-28T22:05:07.569Z,19.30
2018-07-28T22:07:35.668Z,19.20
2018-07-28T22:10:04.662Z,19.20
2018-07-28T22:12:32.744Z,19.20
2018-07-28T22:15:01.452Z,19.30
2018-07-28T22:17:29.577Z,19.30
2018-07-28T22:19:57.647Z,19.20
2018-07-28T22:22:25.819Z,19.10
2018-07-28T22:24:53.986Z,19.20
2018-07-28T22:27:22.072Z,19.20
2018-07-28T22:29:50.184Z,19.20
2018-07-28T22:32:18.279Z,19.10
2018-07-28T22:34:46.389Z,19.10
2018-07-28T22:37:14.496Z,19.00
2018-07-28T22:39:42.647Z,18.90
2018-07-28T22:42:10.731Z,18.90
2018-07-28T22:44:38.839Z,18.90
2018-07-28T22:47:06.928Z,18.90
2018-07-28T22:49:35.035Z,18.90
2018-07-28T22:52:03.238Z,18.90
2018-07-28T22:54:31.344Z,18.90
2018-07-28T22:56:59.438Z,18.90
2018-07-28T22:59:27.601Z,18.90
2018-07-28T23:01:55.763Z,18.90
2018-07-28T23:04:23.920Z,18.80
2018-07-28T23:06:52.059Z,18.80
2018-07-28T23:09:20.196Z,18.70
2018-07-28T23:11:48.299Z,18.70
2018-07-28T23:14:16.536Z,18.60
2018-07-28T23:16:44.617Z,18.60
2018-07-28T23:19:12.716Z,18.60
2018-07-28T23:21:40.823Z,18.50
2018-07-28T23:24:08.923Z,18.50
2018-07-28T23:26:37.055Z,18.40
2018-07-28T23:29:05.144Z,18.40
2018-07-28T23:31:33.668Z,18.40
2018-07-28T23:34:01.800Z,18.40
2018-07-28T23:36:29.911Z,18.40
2018-07-28T23:38:57.995Z,18.40
2018-07-28T23:41:26.122Z,18.40
2018-07-28T23:43:54.236Z,18.40
2018-07-28T23:46:22.323Z,18.30
2018-07-28T23:51:18.331Z,18.10
2018-07-28T23:53:46.431Z,18.10
2018-07-28T23:56:14.540Z,18.10
2018-07-28T23:58:42.657Z,18.10
